sensor_id;sensor_type;location;lat;lon;timestamp;pressure;altitude;pressure_sealevel;temperature;humidity
2188;BME280;1100;52.014;8.540;2022-09-20T00:00:41;100563.78;;;10.67;74.89
2188;BME280;1100;52.014;8.540;2022-09-20T00:03:07;100561.06;;;10.64;75.05
2188;BME280;1100;52.014;8.540;2022-09-20T00:05:37;100569.41;;;10.64;75.01
2188;BME280;1100;52.014;8.540;2022-09-20T00:08:04;100566.63;;;10.64;75.16
2188;BME280;1100;52.014;8.540;2022-09-20T00:10:32;100569.84;;;10.62;75.13
2188;BME280;1100;52.014;8.540;2022-09-20T00:13:00;100568.72;;;10.59;74.97
2188;BME280;1100;52.014;8.540;2022-09-20T00:15:26;100571.13;;;10.57;74.98
2188;BME280;1100;52.014;8.540;2022-09-20T00:17:51;100568.44;;;10.54;75.02
2188;BME280;1100;52.014;8.540;2022-09-20T00:20:17;100576.78;;;10.54;74.96
2188;BME280;1100;52.014;8.540;2022-09-20T00:22:42;100568.50;;;10.50;74.83
2188;BME280;1100;52.014;8.540;2022-09-20T00:25:07;100576.84;;;10.50;75.02
2188;BME280;1100;52.014;8.540;2022-09-20T00:27:33;100569.34;;;10.47;75.05
2188;BME280;1100;52.014;8.540;2022-09-20T00:29:58;100570.56;;;10.46;75.00
2188;BME280;1100;52.014;8.540;2022-09-20T00:32:24;100569.38;;;10.43;75.00
2188;BME280;1100;52.014;8.540;2022-09-20T00:34:49;100577.28;;;10.45;74.99
2188;BME280;1100;52.014;8.540;2022-09-20T00:37:37;100575.72;;;10.44;75.01
2188;BME280;1100;52.014;8.540;2022-09-20T00:40:05;100576.97;;;10.43;74.99
2188;BME280;1100;52.014;8.540;2022-09-20T00:42:31;100580.50;;;10.43;75.07
2188;BME280;1100;52.014;8.540;2022-09-20T00:47:27;100585.72;;;10.41;74.98
2188;BME280;1100;52.014;8.540;2022-09-20T00:50:04;100579.38;;;10.41;75.01
2188;BME280;1100;52.014;8.540;2022-09-20T00:52:32;100582.50;;;10.43;75.12
2188;BME280;1100;52.014;8.540;2022-09-20T00:54:59;100579.72;;;10.43;74.93
2188;BME280;1100;52.014;8.540;2022-09-20T00:57:25;100582.50;;;10.43;74.75
2188;BME280;1100;52.014;8.540;2022-09-20T00:59:51;100591.28;;;10.41;74.93
2188;BME280;1100;52.014;8.540;2022-09-20T01:02:25;100585.72;;;10.41;74.96
2188;BME280;1100;52.014;8.540;2022-09-20T01:04:51;100585.72;;;10.41;74.99
2188;BME280;1100;52.014;8.540;2022-09-20T01:07:19;100584.94;;;10.41;75.03
2188;BME280;1100;52.014;8.540;2022-09-20T01:09:49;100585.28;;;10.43;75.07
2188;BME280;1100;52.014;8.540;2022-09-20T01:12:21;100586.47;;;10.42;74.92
2188;BME280;1100;52.014;8.540;2022-09-20T01:14:49;100581.72;;;10.42;74.94
2188;BME280;1100;52.014;8.540;2022-09-20T01:17:17;100581.28;;;10.44;74.95
2188;BME280;1100;52.014;8.540;2022-09-20T01:20:10;100577.72;;;10.43;75.00
2188;BME280;1100;52.014;8.540;2022-09-20T01:25:29;100584.50;;;10.42;75.10
2188;BME280;1100;52.014;8.540;2022-09-20T01:28:04;100589.69;;;10.40;74.89
2188;BME280;1100;52.014;8.540;2022-09-20T01:30:35;100587.34;;;10.39;74.87
2188;BME280;1100;52.014;8.540;2022-09-20T01:35:43;100598.16;;;10.33;74.95
2188;BME280;1100;52.014;8.540;2022-09-20T01:38:26;100595.03;;;10.31;74.90
2188;BME280;1100;52.014;8.540;2022-09-20T01:41:31;100593.88;;;10.28;74.82
2188;BME280;1100;52.014;8.540;2022-09-20T01:46:36;100607.19;;;10.17;74.80
2188;BME280;1100;52.014;8.540;2022-09-20T02:06:37;100590.41;;;10.00;75.20
2188;BME280;1100;52.014;8.540;2022-09-20T02:12:04;100584.44;;;10.02;75.05
2188;BME280;1100;52.014;8.540;2022-09-20T02:34:17;100597.19;;;9.99;75.02
2188;BME280;1100;52.014;8.540;2022-09-20T02:39:36;100590.03;;;9.98;75.12
2188;BME280;1100;52.014;8.540;2022-09-20T02:42:54;100590.41;;;10.00;75.03
2188;BME280;1100;52.014;8.540;2022-09-20T02:45:13;100594.75;;;10.01;75.10
2188;BME280;1100;52.014;8.540;2022-09-20T02:47:42;100593.56;;;10.02;75.07
2188;BME280;1100;52.014;8.540;2022-09-20T02:50:23;100593.91;;;10.04;75.11
2188;BME280;1100;52.014;8.540;2022-09-20T03:06:26;100604.25;;;10.04;75.15
2188;BME280;1100;52.014;8.540;2022-09-20T03:17:34;100602.22;;;10.04;75.13
2188;BME280;1100;52.014;8.540;2022-09-20T03:20:07;100604.66;;;10.02;75.10
2188;BME280;1100;52.014;8.540;2022-09-20T03:25:29;100608.34;;;9.95;75.12
2188;BME280;1100;52.014;8.540;2022-09-20T03:42:19;100613.53;;;9.93;75.14
2188;BME280;1100;52.014;8.540;2022-09-20T04:06:27;100619.81;;;9.97;75.16
2188;BME280;1100;52.014;8.540;2022-09-20T04:09:08;100621.81;;;9.97;75.14
2188;BME280;1100;52.014;8.540;2022-09-20T04:14:53;100617.50;;;9.92;75.16
2188;BME280;1100;52.014;8.540;2022-09-20T04:20:30;100626.25;;;9.91;75.21
2188;BME280;1100;52.014;8.540;2022-09-20T04:23:07;100620.72;;;9.91;75.11
2188;BME280;1100;52.014;8.540;2022-09-20T04:25:38;100620.34;;;9.89;75.30
2188;BME280;1100;52.014;8.540;2022-09-20T04:28:23;100628.31;;;9.87;75.17
2188;BME280;1100;52.014;8.540;2022-09-20T04:30:55;100628.75;;;9.85;75.23
2188;BME280;1100;52.014;8.540;2022-09-20T04:33:30;100628.38;;;9.83;75.20
2188;BME280;1100;52.014;8.540;2022-09-20T04:44:42;100626.19;;;9.70;75.14
2188;BME280;1100;52.014;8.540;2022-09-20T04:54:02;100636.63;;;9.63;75.51
2188;BME280;1100;52.014;8.540;2022-09-20T05:00:02;100639.81;;;9.61;75.17
2188;BME280;1100;52.014;8.540;2022-09-20T05:13:29;100660.13;;;9.54;75.23
2188;BME280;1100;52.014;8.540;2022-09-20T05:16:21;100654.56;;;9.54;75.40
2188;BME280;1100;52.014;8.540;2022-09-20T05:30:52;100674.00;;;9.54;75.43
2188;BME280;1100;52.014;8.540;2022-09-20T05:36:18;100679.13;;;9.56;75.40
2188;BME280;1100;52.014;8.540;2022-09-20T05:38:50;100677.94;;;9.57;75.33
2188;BME280;1100;52.014;8.540;2022-09-20T06:00:29;100699.56;;;9.69;75.54
2188;BME280;1100;52.014;8.540;2022-09-20T06:16:41;100706.66;;;9.74;75.50
2188;BME280;1100;52.014;8.540;2022-09-20T06:19:38;100704.63;;;9.75;75.49
2188;BME280;1100;52.014;8.540;2022-09-20T06:22:38;100701.09;;;9.74;75.68
2188;BME280;1100;52.014;8.540;2022-09-20T06:27:50;100709.72;;;9.80;75.55
2188;BME280;1100;52.014;8.540;2022-09-20T06:30:23;100723.19;;;9.81;75.54
2188;BME280;1100;52.014;8.540;2022-09-20T06:33:00;100720.78;;;9.83;75.67
2188;BME280;1100;52.014;8.540;2022-09-20T06:41:10;100711.25;;;9.84;75.68
2188;BME280;1100;52.014;8.540;2022-09-20T06:43:57;100720.38;;;9.85;75.56
2188;BME280;1100;52.014;8.540;2022-09-20T06:46:30;100720.72;;;9.87;75.49
2188;BME280;1100;52.014;8.540;2022-09-20T06:48:57;100719.97;;;9.87;75.74
2188;BME280;1100;52.014;8.540;2022-09-20T06:51:25;100719.16;;;9.86;75.58
2188;BME280;1100;52.014;8.540;2022-09-20T06:53:53;100723.19;;;9.81;75.33
2188;BME280;1100;52.014;8.540;2022-09-20T06:56:22;100715.28;;;9.80;75.47
2188;BME280;1100;52.014;8.540;2022-09-20T06:58:47;100722.06;;;9.79;75.54
2188;BME280;1100;52.014;8.540;2022-09-20T07:01:13;100719.69;;;9.77;75.36
2188;BME280;1100;52.014;8.540;2022-09-20T07:03:40;100728.03;;;9.77;75.50
2188;BME280;1100;52.014;8.540;2022-09-20T07:06:05;100741.94;;;9.74;75.45
2188;BME280;1100;52.014;8.540;2022-09-20T07:08:31;100745.50;;;9.74;75.55
2188;BME280;1100;52.014;8.540;2022-09-20T07:10:56;100746.34;;;9.71;75.39
2188;BME280;1100;52.014;8.540;2022-09-20T07:13:21;100750.31;;;9.70;75.54
2188;BME280;1100;52.014;8.540;2022-09-20T07:15:48;100752.31;;;9.69;75.45
2188;BME280;1100;52.014;8.540;2022-09-20T07:18:14;100752.75;;;9.68;75.50
2188;BME280;1100;52.014;8.540;2022-09-20T07:20:40;100762.22;;;9.70;75.60
2188;BME280;1100;52.014;8.540;2022-09-20T07:23:05;100761.78;;;9.72;75.61
2188;BME280;1100;52.014;8.540;2022-09-20T07:25:31;100755.44;;;9.71;75.49
2188;BME280;1100;52.014;8.540;2022-09-20T07:27:56;100766.56;;;9.71;75.60
2188;BME280;1100;52.014;8.540;2022-09-20T07:30:22;100762.59;;;9.72;75.47
2188;BME280;1100;52.014;8.540;2022-09-20T07:32:48;100762.19;;;9.74;75.73
2188;BME280;1100;52.014;8.540;2022-09-20T07:35:14;100767.31;;;9.76;75.50
2188;BME280;1100;52.014;8.540;2022-09-20T07:37:39;100772.03;;;9.79;75.55
2188;BME280;1100;52.014;8.540;2022-09-20T07:40:09;100774.75;;;9.82;75.47
2188;BME280;1100;52.014;8.540;2022-09-20T07:42:35;100774.31;;;9.84;75.58
2188;BME280;1100;52.014;8.540;2022-09-20T07:45:00;100778.28;;;9.87;75.73
2188;BME280;1100;52.014;8.540;2022-09-20T07:47:27;100773.06;;;9.89;75.77
2188;BME280;1100;52.014;8.540;2022-09-20T07:49:55;100778.19;;;9.90;75.65
2188;BME280;1100;52.014;8.540;2022-09-20T07:52:20;100783.72;;;9.94;75.58
2188;BME280;1100;52.014;8.540;2022-09-20T07:54:46;100784.09;;;9.96;75.83
2188;BME280;1100;52.014;8.540;2022-09-20T07:57:11;100781.66;;;9.98;75.71
2188;BME280;1100;52.014;8.540;2022-09-20T07:59:37;100781.63;;;10.02;75.83
2188;BME280;1100;52.014;8.540;2022-09-20T08:02:03;100776.03;;;10.05;75.81
2188;BME280;1100;52.014;8.540;2022-09-20T08:04:28;100780.38;;;10.06;75.72
2188;BME280;1100;52.014;8.540;2022-09-20T08:06:53;100782.31;;;10.09;75.71
2188;BME280;1100;52.014;8.540;2022-09-20T08:09:19;100787.03;;;10.13;75.83
2188;BME280;1100;52.014;8.540;2022-09-20T08:11:44;100794.09;;;10.17;75.79
2188;BME280;1100;52.014;8.540;2022-09-20T08:14:14;100798.03;;;10.20;75.83
2188;BME280;1100;52.014;8.540;2022-09-20T08:16:42;100792.44;;;10.24;75.81
2188;BME280;1100;52.014;8.540;2022-09-20T08:19:12;100803.50;;;10.27;75.92
2188;BME280;1100;52.014;8.540;2022-09-20T08:21:38;100798.25;;;10.33;75.88
2188;BME280;1100;52.014;8.540;2022-09-20T08:24:04;100800.19;;;10.36;75.93
2188;BME280;1100;52.014;8.540;2022-09-20T08:26:29;100799.72;;;10.41;75.88
2188;BME280;1100;52.014;8.540;2022-09-20T08:28:57;100802.03;;;10.46;76.07
2188;BME280;1100;52.014;8.540;2022-09-20T08:31:25;100800.00;;;10.51;75.98
2188;BME280;1100;52.014;8.540;2022-09-20T08:33:51;100801.50;;;10.55;75.96
2188;BME280;1100;52.014;8.540;2022-09-20T08:36:22;100811.38;;;10.60;76.04
2188;BME280;1100;52.014;8.540;2022-09-20T08:38:48;100807.75;;;10.63;76.04
2188;BME280;1100;52.014;8.540;2022-09-20T08:41:25;100806.84;;;10.70;75.94
2188;BME280;1100;52.014;8.540;2022-09-20T08:46:25;100803.88;;;10.81;76.03
2188;BME280;1100;52.014;8.540;2022-09-20T08:48:53;100801.03;;;10.84;76.12
2188;BME280;1100;52.014;8.540;2022-09-20T08:51:19;100804.88;;;10.91;76.09
2188;BME280;1100;52.014;8.540;2022-09-20T08:53:48;100804.84;;;10.94;76.15
2188;BME280;1100;52.014;8.540;2022-09-20T08:56:15;100809.13;;;10.99;76.19
2188;BME280;1100;52.014;8.540;2022-09-20T08:58:41;100798.72;;;11.03;75.98
2188;BME280;1100;52.014;8.540;2022-09-20T09:01:10;100803.78;;;11.08;76.07
2188;BME280;1100;52.014;8.540;2022-09-20T09:03:37;100814.03;;;11.15;76.02
2188;BME280;1100;52.014;8.540;2022-09-20T09:06:02;100815.16;;;11.18;76.00
2188;BME280;1100;52.014;8.540;2022-09-20T09:08:32;100803.16;;;11.21;76.26
2188;BME280;1100;52.014;8.540;2022-09-20T09:11:03;100809.88;;;11.24;76.04
2188;BME280;1100;52.014;8.540;2022-09-20T09:13:38;100801.91;;;11.26;75.95
2188;BME280;1100;52.014;8.540;2022-09-20T09:16:13;100805.81;;;11.28;75.96
2188;BME280;1100;52.014;8.540;2022-09-20T09:18:43;100800.19;;;11.32;76.04
2188;BME280;1100;52.014;8.540;2022-09-20T09:23:49;100800.81;;;11.60;76.34
2188;BME280;1100;52.014;8.540;2022-09-20T09:26:21;100796.72;;;11.85;76.29
2188;BME280;1100;52.014;8.540;2022-09-20T09:29:10;100805.56;;;12.20;76.60
2188;BME280;1100;52.014;8.540;2022-09-20T09:31:39;100805.06;;;12.59;76.76
2188;BME280;1100;52.014;8.540;2022-09-20T09:34:28;100810.25;;;12.90;76.22
2188;BME280;1100;52.014;8.540;2022-09-20T09:36:55;100815.91;;;13.03;75.90
2188;BME280;1100;52.014;8.540;2022-09-20T09:39:32;100813.00;;;13.07;75.54
2188;BME280;1100;52.014;8.540;2022-09-20T09:41:58;100812.69;;;13.05;75.44
2188;BME280;1100;52.014;8.540;2022-09-20T09:44:31;100805.63;;;13.00;75.38
2188;BME280;1100;52.014;8.540;2022-09-20T09:47:00;100812.41;;;12.99;75.41
2188;BME280;1100;52.014;8.540;2022-09-20T09:49:27;100811.22;;;13.00;75.42
2188;BME280;1100;52.014;8.540;2022-09-20T09:52:11;100808.75;;;13.02;75.46
2188;BME280;1100;52.014;8.540;2022-09-20T09:54:39;100809.47;;;13.06;75.47
2188;BME280;1100;52.014;8.540;2022-09-20T10:09:08;100813.59;;;13.15;75.40
2188;BME280;1100;52.014;8.540;2022-09-20T10:15:00;100813.66;;;13.28;75.08
2188;BME280;1100;52.014;8.540;2022-09-20T10:22:51;100799.81;;;13.24;75.02
2188;BME280;1100;52.014;8.540;2022-09-20T10:36:56;100810.06;;;12.98;74.73
2188;BME280;1100;52.014;8.540;2022-09-20T10:39:32;100819.44;;;12.91;74.51
2188;BME280;1100;52.014;8.540;2022-09-20T10:45:35;100839.06;;;12.70;74.38
2188;BME280;1100;52.014;8.540;2022-09-20T10:50:51;100840.00;;;12.47;74.29
2188;BME280;1100;52.014;8.540;2022-09-20T10:53:35;100840.69;;;12.35;74.43
2188;BME280;1100;52.014;8.540;2022-09-20T10:58:47;100841.59;;;12.11;74.57
2188;BME280;1100;52.014;8.540;2022-09-20T11:01:24;100845.34;;;12.01;74.57
2188;BME280;1100;52.014;8.540;2022-09-20T11:09:10;100848.00;;;11.88;74.91
2188;BME280;1100;52.014;8.540;2022-09-20T11:11:41;100844.53;;;11.83;75.01
2188;BME280;1100;52.014;8.540;2022-09-20T11:17:40;100849.81;;;11.78;75.13
2188;BME280;1100;52.014;8.540;2022-09-20T11:20:21;100853.03;;;11.76;75.08
2188;BME280;1100;52.014;8.540;2022-09-20T11:22:57;100845.88;;;11.75;75.25
2188;BME280;1100;52.014;8.540;2022-09-20T11:25:38;100851.00;;;11.77;75.28
2188;BME280;1100;52.014;8.540;2022-09-20T11:28:14;100850.09;;;11.83;75.47
2188;BME280;1100;52.014;8.540;2022-09-20T11:30:55;100840.38;;;11.92;75.76
2188;BME280;1100;52.014;8.540;2022-09-20T11:33:36;100846.09;;;12.05;75.71
2188;BME280;1100;52.014;8.540;2022-09-20T11:36:20;100841.94;;;12.13;75.64
2188;BME280;1100;52.014;8.540;2022-09-20T11:39:07;100850.91;;;12.21;75.67
2188;BME280;1100;52.014;8.540;2022-09-20T11:41:35;100840.50;;;12.25;75.75
2188;BME280;1100;52.014;8.540;2022-09-20T11:44:11;100846.78;;;12.29;75.80
2188;BME280;1100;52.014;8.540;2022-09-20T11:46:44;100840.75;;;12.31;75.67
2188;BME280;1100;52.014;8.540;2022-09-20T11:52:52;100841.44;;;12.35;75.69
2188;BME280;1100;52.014;8.540;2022-09-20T11:58:18;100835.81;;;12.39;75.66
2188;BME280;1100;52.014;8.540;2022-09-20T12:00:48;100835.00;;;12.38;75.70
2188;BME280;1100;52.014;8.540;2022-09-20T12:03:29;100835.81;;;12.39;75.79
2188;BME280;1100;52.014;8.540;2022-09-20T12:06:03;100840.16;;;12.40;75.75
2188;BME280;1100;52.014;8.540;2022-09-20T12:08:32;100840.16;;;12.40;75.66
2188;BME280;1100;52.014;8.540;2022-09-20T12:11:02;100828.22;;;12.39;75.71
2188;BME280;1100;52.014;8.540;2022-09-20T12:13:30;100830.59;;;12.41;75.85
2188;BME280;1100;52.014;8.540;2022-09-20T12:21:10;100834.69;;;12.53;75.89
2188;BME280;1100;52.014;8.540;2022-09-20T12:28:44;100831.72;;;12.60;75.82
2188;BME280;1100;52.014;8.540;2022-09-20T12:34:01;100829.28;;;12.62;75.82
2188;BME280;1100;52.014;8.540;2022-09-20T12:36:35;100836.41;;;12.63;75.87
2188;BME280;1100;52.014;8.540;2022-09-20T12:39:14;100831.63;;;12.64;75.86
2188;BME280;1100;52.014;8.540;2022-09-20T12:44:37;100830.75;;;12.67;75.79
2188;BME280;1100;52.014;8.540;2022-09-20T13:11:15;100835.22;;;12.81;75.42
2188;BME280;1100;52.014;8.540;2022-09-20T13:13:48;100845.69;;;12.77;75.40
2188;BME280;1100;52.014;8.540;2022-09-20T13:16:21;100836.25;;;12.70;75.22
2188;BME280;1100;52.014;8.540;2022-09-20T13:19:00;100840.78;;;12.64;75.19
2188;BME280;1100;52.014;8.540;2022-09-20T13:21:26;100845.31;;;12.58;75.16
2188;BME280;1100;52.014;8.540;2022-09-20T13:23:52;100837.47;;;12.53;75.20
2188;BME280;1100;52.014;8.540;2022-09-20T13:26:25;100846.34;;;12.48;75.10
2188;BME280;1100;52.014;8.540;2022-09-20T13:28:55;100842.78;;;12.47;75.17
2188;BME280;1100;52.014;8.540;2022-09-20T13:31:28;100842.00;;;12.46;75.50
2188;BME280;1100;52.014;8.540;2022-09-20T13:33:54;100845.91;;;12.49;75.58
2188;BME280;1100;52.014;8.540;2022-09-20T13:36:27;100838.34;;;12.50;75.36
2188;BME280;1100;52.014;8.540;2022-09-20T13:38:55;100841.50;;;12.52;75.33
2188;BME280;1100;52.014;8.540;2022-09-20T13:41:21;100844.59;;;12.54;75.51
2188;BME280;1100;52.014;8.540;2022-09-20T13:43:48;100842.44;;;12.62;75.61
2188;BME280;1100;52.014;8.540;2022-09-20T13:46:23;100837.75;;;12.75;75.70
2188;BME280;1100;52.014;8.540;2022-09-20T13:48:58;100831.94;;;12.99;76.01
2188;BME280;1100;52.014;8.540;2022-09-20T13:51:34;100826.06;;;13.27;76.09
2188;BME280;1100;52.014;8.540;2022-09-20T13:54:30;100834.81;;;13.58;76.34
2188;BME280;1100;52.014;8.540;2022-09-20T13:57:00;100835.53;;;13.89;76.24
2188;BME280;1100;52.014;8.540;2022-09-20T13:59:32;100836.72;;;14.17;76.27
2188;BME280;1100;52.014;8.540;2022-09-20T14:01:59;100836.38;;;14.41;75.98
2188;BME280;1100;52.014;8.540;2022-09-20T14:04:27;100841.28;;;14.50;75.65
2188;BME280;1100;52.014;8.540;2022-09-20T14:06:55;100843.44;;;14.46;75.10
2188;BME280;1100;52.014;8.540;2022-09-20T14:09:31;100842.97;;;14.35;74.71
2188;BME280;1100;52.014;8.540;2022-09-20T14:11:58;100850.69;;;14.17;74.60
2188;BME280;1100;52.014;8.540;2022-09-20T14:14:24;100849.19;;;14.00;74.38
2188;BME280;1100;52.014;8.540;2022-09-20T14:16:52;100845.25;;;13.84;74.25
2188;BME280;1100;52.014;8.540;2022-09-20T14:19:20;100846.91;;;13.68;74.23
2188;BME280;1100;52.014;8.540;2022-09-20T14:21:47;100852.03;;;13.57;74.30
2188;BME280;1100;52.014;8.540;2022-09-20T14:26:39;100853.03;;;13.33;74.31
2188;BME280;1100;52.014;8.540;2022-09-20T14:35:13;100855.31;;;13.05;74.29
2188;BME280;1100;52.014;8.540;2022-09-20T14:37:49;100859.09;;;12.99;74.15
2188;BME280;1100;52.014;8.540;2022-09-20T14:40:27;100858.06;;;12.92;74.07
2188;BME280;1100;52.014;8.540;2022-09-20T14:43:00;100859.00;;;12.86;73.98
2188;BME280;1100;52.014;8.540;2022-09-20T14:45:38;100859.09;;;12.82;74.13
2188;BME280;1100;52.014;8.540;2022-09-20T14:50:36;100856.47;;;12.75;73.90
2188;BME280;1100;52.014;8.540;2022-09-20T14:55:27;100859.00;;;12.69;73.96
2188;BME280;1100;52.014;8.540;2022-09-20T14:58:20;100860.66;;;12.66;73.80
2188;BME280;1100;52.014;8.540;2022-09-20T15:00:50;100868.25;;;12.66;73.88
2188;BME280;1100;52.014;8.540;2022-09-20T15:03:25;100861.09;;;12.65;73.93
2188;BME280;1100;52.014;8.540;2022-09-20T15:05:51;100857.09;;;12.66;73.88
2188;BME280;1100;52.014;8.540;2022-09-20T15:08:16;100861.81;;;12.69;73.86
2188;BME280;1100;52.014;8.540;2022-09-20T15:10:44;100868.94;;;12.70;74.01
2188;BME280;1100;52.014;8.540;2022-09-20T15:13:10;100860.13;;;12.71;73.82
2188;BME280;1100;52.014;8.540;2022-09-20T15:15:35;100862.94;;;12.71;73.77
2188;BME280;1100;52.014;8.540;2022-09-20T15:18:00;100864.06;;;12.74;73.88
2188;BME280;1100;52.014;8.540;2022-09-20T15:20:27;100856.47;;;12.75;73.82
2188;BME280;1100;52.014;8.540;2022-09-20T15:22:52;100859.63;;;12.77;73.78
2188;BME280;1100;52.014;8.540;2022-09-20T15:25:19;100856.84;;;12.77;73.82
2188;BME280;1100;52.014;8.540;2022-09-20T15:27:46;100862.41;;;12.77;73.86
2188;BME280;1100;52.014;8.540;2022-09-20T15:30:15;100867.56;;;12.78;73.79
2188;BME280;1100;52.014;8.540;2022-09-20T15:32:42;100861.97;;;12.78;73.87
2188;BME280;1100;52.014;8.540;2022-09-20T15:35:08;100867.56;;;12.78;73.63
2188;BME280;1100;52.014;8.540;2022-09-20T15:37:34;100868.00;;;12.77;73.85
2188;BME280;1100;52.014;8.540;2022-09-20T15:39:59;100863.97;;;12.78;73.87
2188;BME280;1100;52.014;8.540;2022-09-20T15:42:25;100868.75;;;12.77;73.87
2188;BME280;1100;52.014;8.540;2022-09-20T15:44:51;100868.75;;;12.77;73.69
2188;BME280;1100;52.014;8.540;2022-09-20T15:47:16;100867.56;;;12.78;73.82
2188;BME280;1100;52.014;8.540;2022-09-20T15:49:42;100863.19;;;12.77;73.80
2188;BME280;1100;52.014;8.540;2022-09-20T15:52:11;100864.78;;;12.78;73.85
2188;BME280;1100;52.014;8.540;2022-09-20T15:54:37;100867.88;;;12.80;73.79
2188;BME280;1100;52.014;8.540;2022-09-20T15:57:03;100868.69;;;12.81;73.96
2188;BME280;1100;52.014;8.540;2022-09-20T15:59:29;100856.72;;;12.80;73.93
2188;BME280;1100;52.014;8.540;2022-09-20T16:01:54;100866.69;;;12.81;73.91
2188;BME280;1100;52.014;8.540;2022-09-20T16:04:19;100870.25;;;12.82;73.77
2188;BME280;1100;52.014;8.540;2022-09-20T16:06:47;100870.25;;;12.82;73.71
2188;BME280;1100;52.014;8.540;2022-09-20T16:09:13;100875.06;;;12.81;73.85
2188;BME280;1100;52.014;8.540;2022-09-20T16:11:39;100876.63;;;12.82;73.77
2188;BME280;1100;52.014;8.540;2022-09-20T16:14:05;100880.63;;;12.81;73.51
2188;BME280;1100;52.014;8.540;2022-09-20T16:16:32;100877.84;;;12.81;73.68
2188;BME280;1100;52.014;8.540;2022-09-20T16:18:58;100876.25;;;12.80;73.71
2188;BME280;1100;52.014;8.540;2022-09-20T16:21:51;100884.63;;;12.80;73.71
2188;BME280;1100;52.014;8.540;2022-09-20T16:24:21;100880.28;;;12.79;73.71
2188;BME280;1100;52.014;8.540;2022-09-20T16:26:48;100875.94;;;12.78;73.56
2188;BME280;1100;52.014;8.540;2022-09-20T16:29:13;100884.28;;;12.78;73.57
2188;BME280;1100;52.014;8.540;2022-09-20T16:36:31;100876.78;;;12.75;73.55
2188;BME280;1100;52.014;8.540;2022-09-20T16:38:57;100885.16;;;12.75;73.68
2188;BME280;1100;52.014;8.540;2022-09-20T16:41:23;100879.22;;;12.73;73.60
2188;BME280;1100;52.014;8.540;2022-09-20T16:43:50;100888.03;;;12.71;73.46
2188;BME280;1100;52.014;8.540;2022-09-20T16:46:19;100888.47;;;12.70;73.61
2188;BME280;1100;52.014;8.540;2022-09-20T16:48:46;100886.53;;;12.67;73.48
2188;BME280;1100;52.014;8.540;2022-09-20T16:51:12;100894.56;;;12.65;73.46
2188;BME280;1100;52.014;8.540;2022-09-20T16:53:40;100891.44;;;12.63;73.46
2188;BME280;1100;52.014;8.540;2022-09-20T16:56:05;100890.28;;;12.60;73.42
2188;BME280;1100;52.014;8.540;2022-09-20T16:58:32;100895.97;;;12.56;73.25
2188;BME280;1100;52.014;8.540;2022-09-20T17:01:03;100898.03;;;12.52;73.37
2188;BME280;1100;52.014;8.540;2022-09-20T17:03:28;100897.25;;;12.52;73.35
2188;BME280;1100;52.014;8.540;2022-09-20T17:06:03;100902.91;;;12.48;73.34
2188;BME280;1100;52.014;8.540;2022-09-20T17:08:33;100913.69;;;12.46;73.32
2188;BME280;1100;52.014;8.540;2022-09-20T17:11:07;100910.22;;;12.42;73.37
2188;BME280;1100;52.014;8.540;2022-09-20T17:13:34;100918.22;;;12.40;73.44
2188;BME280;1100;52.014;8.540;2022-09-20T17:18:26;100921.53;;;12.35;73.18
2188;BME280;1100;52.014;8.540;2022-09-20T17:20:51;100923.97;;;12.32;73.36
2188;BME280;1100;52.014;8.540;2022-09-20T17:23:16;100925.63;;;12.30;73.25
2188;BME280;1100;52.014;8.540;2022-09-20T17:25:42;100923.25;;;12.28;73.22
2188;BME280;1100;52.014;8.540;2022-09-20T17:28:08;100935.28;;;12.25;73.17
2188;BME280;1100;52.014;8.540;2022-09-20T17:30:33;100924.97;;;12.22;73.31
2188;BME280;1100;52.014;8.540;2022-09-20T17:32:59;100928.25;;;12.17;73.34
2188;BME280;1100;52.014;8.540;2022-09-20T17:35:24;100939.84;;;12.15;73.12
2188;BME280;1100;52.014;8.540;2022-09-20T17:37:49;100934.31;;;12.12;73.13
2188;BME280;1100;52.014;8.540;2022-09-20T17:40:15;100942.78;;;12.08;73.11
2188;BME280;1100;52.014;8.540;2022-09-20T17:42:40;100949.63;;;12.03;73.08
2188;BME280;1100;52.014;8.540;2022-09-20T17:45:08;100950.88;;;11.99;73.12
2188;BME280;1100;52.014;8.540;2022-09-20T17:47:33;100950.16;;;11.94;73.22
2188;BME280;1100;52.014;8.540;2022-09-20T17:49:58;100956.59;;;11.91;73.31
2188;BME280;1100;52.014;8.540;2022-09-20T17:52:24;100952.31;;;11.87;73.34
2188;BME280;1100;52.014;8.540;2022-09-20T17:54:49;100960.72;;;11.83;73.09
2188;BME280;1100;52.014;8.540;2022-09-20T17:57:14;100956.44;;;11.78;72.88
2188;BME280;1100;52.014;8.540;2022-09-20T17:59:39;100961.28;;;11.74;73.17
2188;BME280;1100;52.014;8.540;2022-09-20T18:02:05;100962.56;;;11.69;73.21
2188;BME280;1100;52.014;8.540;2022-09-20T18:04:31;100961.84;;;11.65;73.22
2188;BME280;1100;52.014;8.540;2022-09-20T18:06:56;100976.63;;;11.62;72.98
2188;BME280;1100;52.014;8.540;2022-09-20T18:09:23;100979.09;;;11.56;73.15
2188;BME280;1100;52.014;8.540;2022-09-20T18:11:51;100978.00;;;11.50;73.07
2188;BME280;1100;52.014;8.540;2022-09-20T18:14:22;100980.88;;;11.46;73.20
2188;BME280;1100;52.014;8.540;2022-09-20T18:16:53;100976.56;;;11.42;73.04
2188;BME280;1100;52.014;8.540;2022-09-20T18:19:19;100992.53;;;11.38;73.11
2188;BME280;1100;52.014;8.540;2022-09-20T18:21:46;100987.88;;;11.31;73.28
2188;BME280;1100;52.014;8.540;2022-09-20T18:24:12;100995.47;;;11.27;73.27
2188;BME280;1100;52.014;8.540;2022-09-20T18:26:38;100994.75;;;11.23;73.29
2188;BME280;1100;52.014;8.540;2022-09-20T18:31:31;100993.25;;;11.18;73.30
2188;BME280;1100;52.014;8.540;2022-09-20T18:34:01;100994.81;;;11.19;73.37
2188;BME280;1100;52.014;8.540;2022-09-20T18:36:29;100999.94;;;11.20;73.46
2188;BME280;1100;52.014;8.540;2022-09-20T18:38:55;100999.19;;;11.20;73.51
2188;BME280;1100;52.014;8.540;2022-09-20T18:41:23;100997.59;;;11.19;73.40
2188;BME280;1100;52.014;8.540;2022-09-20T18:43:50;100997.97;;;11.21;73.47
2188;BME280;1100;52.014;8.540;2022-09-20T18:46:15;100998.75;;;11.21;73.52
2188;BME280;1100;52.014;8.540;2022-09-20T18:48:40;101002.72;;;11.20;73.50
2188;BME280;1100;52.014;8.540;2022-09-20T18:51:07;101005.53;;;11.20;73.51
2188;BME280;1100;52.014;8.540;2022-09-20T18:53:35;101001.53;;;11.21;73.55
2188;BME280;1100;52.014;8.540;2022-09-20T18:56:20;101006.31;;;11.21;73.47
2188;BME280;1100;52.014;8.540;2022-09-20T18:58:47;101001.59;;;11.18;73.51